Time;durP1;ratioP1;P1;durP2;ratioP2;P2;SDS_P1;SDS_P2;PMS_P1;PMS_P2;Temp;Humidity;BMP_temperature;BMP_pressure;BME280_temperature;BME280_humidity;BME280_pressure;Samples;Min_cycle;Max_cycle;Signal;HPM_P1;HPM_P2
2022/11/19 00:01:17;;;;;;;195.88;55.55;;;;;;;13.64;100.00;98747.03;5086190;28;20033;-71
2022/11/19 00:03:43;;;;;;;190.35;57.75;;;;;;;13.66;100.00;98752.97;5066746;28;20029;-72
2022/11/19 00:06:14;;;;;;;183.60;54.50;;;;;;;13.68;100.00;98748.28;5083631;28;20055;-71
2022/11/19 00:08:41;;;;;;;193.32;55.67;;;;;;;13.61;100.00;98760.75;5086927;28;20087;-71
2022/11/19 00:11:12;;;;;;;194.65;55.42;;;;;;;13.56;100.00;98759.75;5083640;28;20040;-71
2022/11/19 00:13:38;;;;;;;182.68;55.03;;;;;;;13.62;100.00;98749.09;5066002;28;20035;-72
2022/11/19 00:16:09;;;;;;;202.35;56.17;;;;;;;13.52;100.00;98748.66;5085345;28;20380;-71
2022/11/19 00:18:35;;;;;;;201.00;54.58;;;;;;;13.50;100.00;98763.19;5083545;28;20214;-73
2022/11/19 00:21:02;;;;;;;240.45;55.40;;;;;;;13.59;100.00;98754.00;5085411;28;20036;-72
2022/11/19 00:23:28;;;;;;;184.43;53.33;;;;;;;13.22;100.00;98728.81;5086133;28;20059;-72
2022/11/19 00:25:53;;;;;;;185.45;49.75;;;;;;;13.43;100.00;98768.50;5085793;28;20096;-71
2022/11/19 00:28:18;;;;;;;189.35;56.47;;;;;;;13.60;100.00;98766.28;5086524;28;20047;-72
2022/11/19 00:30:44;;;;;;;177.13;53.00;;;;;;;13.58;100.00;98763.00;5084410;28;20103;-72
2022/11/19 00:33:09;;;;;;;166.07;50.38;;;;;;;13.57;100.00;98775.50;5085577;28;20353;-72
2022/11/19 00:35:34;;;;;;;173.45;48.58;;;;;;;13.49;100.00;98764.22;5085250;28;20052;-71
2022/11/19 00:38:00;;;;;;;151.05;44.15;;;;;;;13.49;100.00;98762.38;5084825;28;20029;-71
2022/11/19 00:40:25;;;;;;;140.75;45.88;;;;;;;13.49;100.00;98765.03;5083477;28;20040;-72
2022/11/19 00:45:35;;;;;;;132.30;43.40;;;;;;;13.27;100.00;98806.94;5086643;28;20111;-71
2022/11/19 00:48:00;;;;;;;142.60;45.03;;;;;;;13.29;100.00;98812.88;5086344;28;20017;-72
2022/11/19 00:50:25;;;;;;;153.90;47.95;;;;;;;13.32;100.00;98811.66;5084879;28;20444;-71
2022/11/19 00:52:51;;;;;;;162.75;49.75;;;;;;;13.44;100.00;98802.03;5084149;28;20076;-71
2022/11/19 00:55:16;;;;;;;142.50;44.58;;;;;;;13.43;100.00;98814.53;5085331;28;20288;-71
2022/11/19 00:57:41;;;;;;;152.23;45.42;;;;;;;13.35;100.00;98808.59;5085763;28;20055;-71
2022/11/19 01:00:08;;;;;;;140.13;46.40;;;;;;;13.51;100.00;98802.88;5089120;28;20040;-71
2022/11/19 01:02:33;;;;;;;150.13;44.58;;;;;;;13.56;100.00;98803.09;5082911;28;20025;-72
2022/11/19 01:04:58;;;;;;;140.18;46.28;;;;;;;13.44;100.00;98825.97;5082345;28;20060;-71
2022/11/19 01:07:24;;;;;;;130.93;41.58;;;;;;;13.36;100.00;98823.50;5083391;28;20108;-71
2022/11/19 01:09:49;;;;;;;131.98;41.15;;;;;;;13.22;100.00;98830.66;5084201;28;20086;-70
2022/11/19 01:12:15;;;;;;;139.80;43.03;;;;;;;13.23;100.00;98816.34;5083997;28;20222;-72
2022/11/19 01:14:40;;;;;;;138.07;42.53;;;;;;;13.16;100.00;98814.66;5085005;28;20029;-73
2022/11/19 01:17:05;;;;;;;122.55;42.03;;;;;;;13.03;100.00;98832.19;5084788;28;20035;-70
2022/11/19 01:19:31;;;;;;;116.72;41.75;;;;;;;12.91;100.00;98832.97;5084865;28;20318;-71
2022/11/19 01:21:56;;;;;;;109.97;39.45;;;;;;;12.72;100.00;98838.00;5081381;28;20028;-72
2022/11/19 01:24:22;;;;;;;103.13;39.67;;;;;;;12.82;100.00;98853.59;5084112;28;20146;-70
2022/11/19 01:26:47;;;;;;;105.60;38.55;;;;;;;12.68;100.00;98867.81;5082533;28;20040;-72
2022/11/19 01:29:13;;;;;;;104.50;38.45;;;;;;;12.83;100.00;98875.66;5082192;28;20279;-71
2022/11/19 01:31:38;;;;;;;98.22;38.58;;;;;;;12.87;100.00;98898.97;5083431;28;20081;-72
2022/11/19 01:34:04;;;;;;;106.35;39.80;;;;;;;12.99;100.00;98896.56;5082332;28;20312;-73
2022/11/19 01:36:29;;;;;;;114.82;40.53;;;;;;;12.60;100.00;98884.75;5082779;28;20104;-72
2022/11/19 01:38:56;;;;;;;121.30;45.92;;;;;;;12.69;100.00;98885.41;5084315;28;20063;-71
2022/11/19 01:41:31;;;;;;;125.40;44.83;;;;;;;12.56;100.00;98887.97;5067257;28;20028;-71
2022/11/19 01:44:05;;;;;;;118.38;45.53;;;;;;;12.57;100.00;98895.75;5085778;28;20048;-72
2022/11/19 01:46:33;;;;;;;119.85;45.65;;;;;;;12.57;100.00;98902.91;5067171;28;20424;-72
2022/11/19 01:49:04;;;;;;;113.95;44.28;;;;;;;12.66;100.00;98910.50;5084332;28;20092;-71
2022/11/19 01:51:34;;;;;;;112.75;45.95;;;;;;;12.55;100.00;98918.22;5083541;28;20052;-71
2022/11/19 01:54:07;;;;;;;101.97;40.10;;;;;;;12.81;100.00;98922.84;5085704;28;20044;-71
2022/11/19 01:56:33;;;;;;;103.68;42.25;;;;;;;12.83;100.00;98907.53;5082782;28;20045;-70
2022/11/19 01:59:04;;;;;;;106.00;40.70;;;;;;;13.10;100.00;98918.09;5081279;28;20028;-72
2022/11/19 02:01:31;;;;;;;105.78;42.03;;;;;;;12.89;100.00;98917.38;5083498;28;20043;-73
2022/11/19 02:04:02;;;;;;;106.75;42.30;;;;;;;12.87;100.00;98941.50;5084546;28;20081;-72
2022/11/19 02:06:29;;;;;;;109.60;41.90;;;;;;;12.63;100.00;98932.16;5083517;28;20265;-72
2022/11/19 02:08:55;;;;;;;110.32;42.65;;;;;;;12.72;100.00;98940.78;5083386;28;20039;-71
2022/11/19 02:12:00;;;;;;;108.70;42.58;;;;;;;12.87;100.00;98944.16;5081760;28;20044;-72
2022/11/19 02:14:52;;;;;;;107.15;39.33;;;;;;;12.87;100.00;98938.84;5081563;28;20032;-71
2022/11/19 02:17:34;;;;;;;110.28;41.28;;;;;;;12.92;100.00;98941.72;5085006;28;20044;-71
2022/11/19 02:20:37;;;;;;;111.05;41.05;;;;;;;12.90;100.00;98937.63;5083996;28;20047;-71
2022/11/19 02:23:05;;;;;;;107.07;39.47;;;;;;;13.02;100.00;98941.34;5083957;28;20032;-70
2022/11/19 02:26:17;;;;;;;97.75;36.97;;;;;;;12.99;100.00;98931.13;5083415;28;20093;-72
2022/11/19 02:28:51;;;;;;;97.25;37.50;;;;;;;13.14;100.00;98946.94;5084206;28;20136;-73
2022/11/19 02:31:42;;;;;;;94.05;36.60;;;;;;;13.23;100.00;98935.97;5083970;28;20207;-72
2022/11/19 02:34:21;;;;;;;88.68;35.45;;;;;;;13.39;100.00;98940.94;5083381;28;20114;-71
2022/11/19 02:37:10;;;;;;;90.18;35.40;;;;;;;13.48;100.00;98928.28;5082659;28;20044;-72
2022/11/19 02:39:40;;;;;;;84.07;35.25;;;;;;;13.47;100.00;98926.63;5054133;28;20043;-71
2022/11/19 02:42:20;;;;;;;85.43;34.28;;;;;;;13.52;100.00;98916.22;5083460;28;20030;-71
2022/11/19 02:45:06;;;;;;;78.40;34.53;;;;;;;13.55;100.00;98923.00;5083547;28;20035;-72
2022/11/19 02:47:39;;;;;;;88.78;36.50;;;;;;;13.59;100.00;98932.22;5082766;28;20124;-71
2022/11/19 02:50:14;;;;;;;81.30;33.38;;;;;;;13.57;100.00;98937.75;5065654;28;20020;-72
2022/11/19 02:52:42;;;;;;;76.95;32.97;;;;;;;13.61;100.00;98944.28;5083748;28;20025;-71
2022/11/19 02:55:15;;;;;;;74.35;30.38;;;;;;;13.63;100.00;98954.72;5097973;28;20281;-71
2022/11/19 02:57:50;;;;;;;79.88;32.97;;;;;;;13.54;100.00;98938.13;5083382;28;20310;-70
2022/11/19 03:06:09;;;;;;;75.50;33.60;;;;;;;13.56;100.00;98960.03;5098139;28;20063;-72
2022/11/19 03:08:35;;;;;;;76.22;33.00;;;;;;;13.38;100.00;98952.59;5082815;28;20039;-71
2022/11/19 03:11:20;;;;;;;82.82;33.97;;;;;;;13.35;100.00;98954.81;5081993;28;20375;-72
2022/11/19 03:17:10;;;;;;;79.90;32.53;;;;;;;12.74;100.00;98965.31;5085064;28;20078;-70
2022/11/19 03:19:35;;;;;;;82.15;33.58;;;;;;;12.65;100.00;98969.16;5083007;28;20040;-72
2022/11/19 03:22:32;;;;;;;85.30;34.83;;;;;;;12.39;100.00;98967.09;5084363;28;20042;-72
2022/11/19 03:25:25;;;;;;;84.18;33.65;;;;;;;12.58;100.00;98968.28;5083220;28;20171;-72
2022/11/19 03:27:57;;;;;;;84.72;32.92;;;;;;;12.44;100.00;98976.13;5080562;28;20055;-72
2022/11/19 03:30:22;;;;;;;89.60;34.90;;;;;;;12.49;100.00;98988.03;5080975;28;20077;-72
2022/11/19 03:32:52;;;;;;;131.90;45.03;;;;;;;12.48;100.00;98995.13;5082588;28;20401;-71
2022/11/19 03:35:32;;;;;;;207.68;57.67;;;;;;;12.57;100.00;98999.31;5067800;28;20028;-71
2022/11/19 03:38:03;;;;;;;174.35;50.63;;;;;;;12.77;100.00;99004.78;5086111;28;20040;-72
2022/11/19 03:40:32;;;;;;;143.65;47.80;;;;;;;12.79;100.00;99016.84;5085821;28;20033;-72
2022/11/19 03:43:00;;;;;;;90.60;35.38;;;;;;;12.93;100.00;99024.91;5087470;28;20048;-71
2022/11/19 03:45:30;;;;;;;82.75;34.00;;;;;;;12.79;100.00;99014.19;5085591;28;20288;-71
2022/11/19 03:48:00;;;;;;;79.97;32.97;;;;;;;12.66;100.00;99031.88;5086592;28;20032;-71
2022/11/19 03:50:40;;;;;;;86.15;33.75;;;;;;;12.66;100.00;99038.00;5087030;28;20253;-72
2022/11/19 03:53:05;;;;;;;85.55;35.22;;;;;;;12.71;100.00;99054.19;5087112;28;20029;-71
2022/11/19 03:55:40;;;;;;;76.03;32.72;;;;;;;12.77;100.00;99032.16;5085828;28;20036;-72
2022/11/19 03:58:08;;;;;;;76.95;34.90;;;;;;;11.80;100.00;98991.25;5086381;28;20055;-72
2022/11/19 04:00:33;;;;;;;93.57;35.65;;;;;;;12.03;100.00;99066.19;5087313;28;20305;-71
2022/11/19 04:02:59;;;;;;;89.10;36.72;;;;;;;12.19;100.00;99072.25;5084851;28;20084;-73
2022/11/19 04:05:25;;;;;;;85.65;35.35;;;;;;;12.34;100.00;99073.84;5083404;28;20337;-72
2022/11/19 04:07:50;;;;;;;84.20;34.95;;;;;;;12.20;100.00;99071.25;5086110;28;20055;-72
2022/11/19 04:10:16;;;;;;;82.72;35.10;;;;;;;12.14;100.00;99068.34;5086031;28;20074;-70
2022/11/19 04:12:41;;;;;;;87.88;35.50;;;;;;;12.13;100.00;99077.31;5086166;28;20339;-70
2022/11/19 04:15:10;;;;;;;111.40;37.17;;;;;;;11.83;100.00;99073.94;5087057;28;20167;-72
2022/11/19 04:17:35;;;;;;;117.00;38.65;;;;;;;11.56;100.00;99073.75;5083295;28;20317;-70
2022/11/19 04:20:01;;;;;;;115.72;38.55;;;;;;;11.41;100.00;99066.59;5083526;28;20026;-70
2022/11/19 04:22:26;;;;;;;119.30;39.72;;;;;;;11.40;100.00;99064.97;5084628;28;20055;-70
2022/11/19 04:24:51;;;;;;;148.95;42.25;;;;;;;11.22;100.00;99058.38;5082044;28;20021;-70
2022/11/19 04:27:17;;;;;;;144.48;44.50;;;;;;;11.16;100.00;99079.31;5084539;28;20103;-70
2022/11/19 04:29:42;;;;;;;154.93;44.50;;;;;;;11.29;100.00;99091.94;5084034;28;20230;-70
2022/11/19 04:32:08;;;;;;;180.93;41.72;;;;;;;11.39;100.00;99097.78;5066935;28;20107;-72
2022/11/19 04:34:33;;;;;;;177.15;43.85;;;;;;;11.48;100.00;99106.50;5084861;28;20024;-72
2022/11/19 04:36:58;;;;;;;198.82;44.38;;;;;;;11.51;100.00;99109.59;5085579;28;20258;-70
2022/11/19 04:39:24;;;;;;;218.98;44.97;;;;;;;11.47;100.00;99104.84;5084618;28;20091;-71
2022/11/19 04:41:49;;;;;;;191.27;39.33;;;;;;;11.41;100.00;99093.13;5083293;28;20041;-72
2022/11/19 04:44:15;;;;;;;159.07;39.25;;;;;;;11.46;100.00;99092.59;5082769;28;20088;-71
2022/11/19 04:46:40;;;;;;;133.02;39.25;;;;;;;11.49;100.00;99103.66;5084847;28;20036;-71
2022/11/19 04:49:05;;;;;;;142.50;36.75;;;;;;;11.63;100.00;99109.13;5085436;28;20099;-72
2022/11/19 04:51:31;;;;;;;117.00;35.83;;;;;;;11.70;100.00;99110.03;5085005;28;20138;-72
2022/11/19 04:53:56;;;;;;;135.77;34.53;;;;;;;11.74;100.00;99108.66;5084831;28;20021;-71
2022/11/19 04:56:22;;;;;;;117.78;33.83;;;;;;;11.79;100.00;99098.34;5101371;28;20044;-70
2022/11/19 04:58:47;;;;;;;93.65;32.22;;;;;;;11.75;100.00;99105.00;5084966;28;20091;-72
2022/11/19 05:01:12;;;;;;;120.53;30.67;;;;;;;11.62;100.00;99110.13;5087188;28;20047;-71
2022/11/19 05:03:38;;;;;;;119.45;31.02;;;;;;;11.63;100.00;99123.22;5085117;28;20230;-72
2022/11/19 05:06:03;;;;;;;87.35;29.70;;;;;;;11.69;100.00;99132.25;5085153;28;20043;-71
2022/11/19 05:08:29;;;;;;;150.80;31.90;;;;;;;11.52;100.00;99131.63;5084040;28;20039;-71
2022/11/19 05:10:54;;;;;;;109.78;30.30;;;;;;;11.42;100.00;99131.06;5084419;28;20029;-71
2022/11/19 05:13:20;;;;;;;96.15;28.02;;;;;;;11.50;100.00;99146.91;5082315;28;20102;-72
2022/11/19 05:15:45;;;;;;;112.55;26.55;;;;;;;11.48;100.00;99151.56;5083082;28;20044;-71
2022/11/19 05:18:12;;;;;;;107.22;30.30;;;;;;;11.37;100.00;99159.94;5086681;28;20067;-73
2022/11/19 05:20:38;;;;;;;101.97;28.75;;;;;;;11.20;100.00;99160.09;5084001;28;20032;-72
2022/11/19 05:23:03;;;;;;;121.20;29.33;;;;;;;11.27;100.00;99178.75;5084807;28;20056;-71
2022/11/19 05:25:29;;;;;;;109.57;30.10;;;;;;;11.37;100.00;99175.84;5084916;28;21224;-71
2022/11/19 05:27:54;;;;;;;129.70;27.85;;;;;;;11.37;100.00;99171.34;5083825;28;20060;-70
2022/11/19 05:30:20;;;;;;;114.93;27.85;;;;;;;11.47;100.00;99182.56;5084861;28;20051;-70
2022/11/19 05:32:46;;;;;;;128.52;28.70;;;;;;;11.51;100.00;99180.38;5084175;28;20074;-72
2022/11/19 05:35:11;;;;;;;122.82;28.52;;;;;;;11.58;100.00;99183.94;5084241;28;20209;-71
2022/11/19 05:37:37;;;;;;;75.75;27.40;;;;;;;11.54;100.00;99192.44;5084857;28;20063;-72
2022/11/19 05:40:03;;;;;;;73.55;25.80;;;;;;;11.41;100.00;99179.78;5084006;28;20448;-73
2022/11/19 05:42:28;;;;;;;79.25;23.67;;;;;;;11.44;100.00;99193.50;5084689;28;20108;-70
2022/11/19 05:44:54;;;;;;;76.53;23.70;;;;;;;11.35;100.00;99204.34;5085446;28;20095;-70
2022/11/19 05:47:19;;;;;;;65.43;21.80;;;;;;;11.33;100.00;99199.22;5081508;28;20236;-73
2022/11/19 05:49:45;;;;;;;71.25;22.15;;;;;;;11.41;100.00;99204.44;5083743;28;20028;-70
2022/11/19 05:52:10;;;;;;;63.25;22.10;;;;;;;11.48;100.00;99223.97;5084985;28;20531;-73
2022/11/19 05:54:36;;;;;;;60.60;20.35;;;;;;;11.50;100.00;99229.09;5083460;28;20028;-70
2022/11/19 05:57:01;;;;;;;61.90;19.55;;;;;;;11.59;100.00;99220.03;5080283;28;20260;-70
2022/11/19 05:59:27;;;;;;;59.15;19.33;;;;;;;11.52;100.00;99227.06;5083636;28;20036;-70
2022/11/19 06:01:52;;;;;;;43.95;18.13;;;;;;;11.63;100.00;99239.06;5081917;28;20111;-72
2022/11/19 06:04:18;;;;;;;68.65;18.60;;;;;;;11.53;100.00;99239.34;5082838;28;20088;-70
2022/11/19 06:06:43;;;;;;;48.50;16.98;;;;;;;11.51;100.00;99230.75;5083794;28;20091;-71
2022/11/19 06:09:09;;;;;;;58.10;18.08;;;;;;;11.53;100.00;99247.28;5066945;28;20130;-73
2022/11/19 06:11:46;;;;;;;78.13;28.17;;;;;;;11.71;100.00;99258.38;5086498;28;20099;-72
2022/11/19 06:14:13;;;;;;;38.08;18.33;;;;;;;11.93;100.00;99267.31;5084153;28;20033;-72
2022/11/19 06:16:38;;;;;;;39.03;19.42;;;;;;;12.09;100.00;99269.78;5083271;28;20020;-72
2022/11/19 06:19:03;;;;;;;34.95;19.17;;;;;;;12.25;100.00;99262.63;5085036;28;20033;-71
2022/11/19 06:21:29;;;;;;;48.60;25.50;;;;;;;12.12;100.00;99277.38;5083494;28;20028;-71
2022/11/19 06:23:54;;;;;;;48.50;26.38;;;;;;;11.93;100.00;99258.53;5083513;28;20024;-72
2022/11/19 06:26:25;;;;;;;63.13;31.55;;;;;;;12.24;100.00;99271.59;5084877;28;20032;-72
2022/11/19 06:28:51;;;;;;;41.58;23.33;;;;;;;12.32;100.00;99264.34;5084922;28;20100;-73
2022/11/19 06:31:17;;;;;;;54.20;26.15;;;;;;;12.32;100.00;99266.19;5084772;28;20364;-72
2022/11/19 06:33:42;;;;;;;47.28;26.25;;;;;;;12.59;100.00;99270.84;5082146;28;20047;-71
2022/11/19 06:36:08;;;;;;;42.42;24.58;;;;;;;12.76;100.00;99269.63;5081109;28;20032;-72
2022/11/19 06:38:33;;;;;;;43.33;25.25;;;;;;;12.78;100.00;99274.75;5083193;28;20039;-72
2022/11/19 06:40:59;;;;;;;32.20;19.70;;;;;;;12.85;100.00;99283.59;5083587;28;20059;-72
2022/11/19 06:43:24;;;;;;;31.25;19.20;;;;;;;12.99;100.00;99284.56;5083254;28;20033;-73
2022/11/19 06:45:50;;;;;;;30.48;17.77;;;;;;;13.09;100.00;99280.59;5082516;28;20024;-71
2022/11/19 06:48:15;;;;;;;31.27;19.13;;;;;;;13.11;100.00;99289.19;5081399;28;20340;-72
2022/11/19 06:50:42;;;;;;;26.15;17.83;;;;;;;13.11;100.00;99283.88;5082435;28;20378;-72
2022/11/19 06:53:08;;;;;;;27.83;17.67;;;;;;;13.21;100.00;99272.97;5086012;28;20044;-71
2022/11/19 06:55:33;;;;;;;31.73;18.45;;;;;;;13.36;100.00;99295.00;5083372;28;20089;-72
2022/11/19 06:58:03;;;;;;;35.80;21.13;;;;;;;13.37;100.00;99299.28;5099199;28;20035;-71
2022/11/19 07:00:29;;;;;;;37.78;22.15;;;;;;;13.39;100.00;99301.75;5069567;28;20025;-71
2022/11/19 07:02:54;;;;;;;34.20;21.48;;;;;;;13.45;100.00;99308.16;5084265;28;20050;-73
2022/11/19 07:05:19;;;;;;;55.75;31.60;;;;;;;13.27;100.00;99296.13;5082749;28;20032;-70
2022/11/19 07:07:45;;;;;;;63.22;40.08;;;;;;;13.37;100.00;99315.25;5084401;28;20122;-71
2022/11/19 07:10:10;;;;;;;74.43;43.35;;;;;;;13.43;100.00;99319.81;5084603;28;20032;-72
2022/11/19 07:12:36;;;;;;;54.20;33.95;;;;;;;13.72;100.00;99320.69;5084928;28;20442;-70
2022/11/19 07:15:01;;;;;;;61.42;33.88;;;;;;;13.56;100.00;99313.81;5087464;28;20031;-71
2022/11/19 07:17:27;;;;;;;55.72;29.92;;;;;;;13.85;100.00;99322.63;5088172;28;20213;-73
2022/11/19 07:19:52;;;;;;;86.72;38.97;;;;;;;14.04;100.00;99321.94;5086155;28;20033;-73
2022/11/19 07:22:17;;;;;;;60.92;28.45;;;;;;;14.04;100.00;99333.44;5087590;28;20040;-71
2022/11/19 07:24:43;;;;;;;42.47;24.75;;;;;;;14.15;100.00;99324.06;5086910;28;20035;-71
2022/11/19 07:27:09;;;;;;;37.33;23.23;;;;;;;14.29;100.00;99325.81;5086820;28;20040;-71
2022/11/19 07:29:35;;;;;;;37.45;24.02;;;;;;;14.16;100.00;99324.91;5087937;28;20032;-71
2022/11/19 07:32:00;;;;;;;40.20;23.92;;;;;;;14.38;100.00;99339.78;5086467;28;20139;-72
2022/11/19 07:34:26;;;;;;;39.33;24.10;;;;;;;14.37;100.00;99333.63;5089870;28;20037;-73
2022/11/19 07:36:51;;;;;;;41.85;25.33;;;;;;;14.28;100.00;99312.69;5087361;28;20039;-73
2022/11/19 07:39:17;;;;;;;39.53;23.33;;;;;;;14.44;100.00;99332.88;5086585;28;20029;-73
2022/11/19 07:44:26;;;;;;;40.15;24.83;;;;;;;14.55;100.00;99342.97;5086425;28;20321;-71
2022/11/19 07:46:52;;;;;;;32.72;20.40;;;;;;;14.80;100.00;99346.00;5084349;28;20032;-73
2022/11/19 07:49:18;;;;;;;32.53;20.38;;;;;;;14.38;100.00;99347.78;5083788;28;20039;-73
2022/11/19 07:51:43;;;;;;;30.63;19.95;;;;;;;14.44;100.00;99357.69;5068259;28;20032;-72
2022/11/19 07:54:10;;;;;;;34.58;20.70;;;;;;;14.47;100.00;99367.94;5085729;28;20218;-73
2022/11/19 07:56:36;;;;;;;72.25;56.35;;;;;;;14.84;100.00;99360.56;5083620;28;20036;-73
2022/11/19 07:59:01;;;;;;;58.80;41.10;;;;;;;14.82;99.07;99334.09;5084269;28;20363;-73
2022/11/19 08:01:26;;;;;;;42.28;26.25;;;;;;;15.23;99.40;99367.88;5086549;28;20371;-73
2022/11/19 08:03:52;;;;;;;31.38;20.88;;;;;;;15.54;97.96;99378.00;5087565;28;20040;-71
2022/11/19 08:06:19;;;;;;;28.05;18.05;;;;;;;15.58;97.78;99385.44;5084589;28;20103;-73
2022/11/19 08:08:45;;;;;;;28.65;19.20;;;;;;;15.71;95.16;99382.00;5084390;28;20032;-72
2022/11/19 08:11:12;;;;;;;34.78;19.85;;;;;;;15.02;98.23;99377.66;5086137;28;20029;-73
2022/11/19 08:13:38;;;;;;;31.73;20.17;;;;;;;14.92;100.00;99382.53;5086965;28;20198;-72
2022/11/19 08:16:10;;;;;;;30.13;19.73;;;;;;;15.12;100.00;99387.94;5086306;28;20036;-72
2022/11/19 08:18:36;;;;;;;33.15;19.60;;;;;;;15.21;100.00;99378.75;5086508;28;20039;-71
2022/11/19 08:21:07;;;;;;;33.40;20.30;;;;;;;15.40;100.00;99371.81;5086673;28;20306;-71
2022/11/19 08:23:34;;;;;;;38.47;22.50;;;;;;;15.48;100.00;99363.63;5085959;28;20226;-72
2022/11/19 08:25:59;;;;;;;35.78;21.02;;;;;;;15.57;100.00;99370.44;5087084;28;20034;-73
2022/11/19 08:28:25;;;;;;;34.90;21.95;;;;;;;15.62;100.00;99378.69;5086344;28;20032;-72
2022/11/19 08:30:51;;;;;;;33.60;21.75;;;;;;;15.77;99.58;99377.69;5085915;28;20035;-73
2022/11/19 08:33:16;;;;;;;43.28;23.20;;;;;;;15.35;100.00;99371.59;5086554;28;20255;-73
2022/11/19 08:35:42;;;;;;;39.10;23.23;;;;;;;15.17;100.00;99382.00;5085930;28;20376;-73
2022/11/19 08:38:08;;;;;;;40.67;23.42;;;;;;;15.43;100.00;99382.09;5083786;28;20116;-71
2022/11/19 08:40:33;;;;;;;35.55;22.30;;;;;;;15.63;100.00;99401.69;5085987;28;20032;-73
2022/11/19 08:42:59;;;;;;;40.03;23.42;;;;;;;15.94;98.88;99387.75;5085789;28;20056;-72
2022/11/19 08:45:28;;;;;;;36.50;21.75;;;;;;;16.05;98.16;99396.16;5068380;28;20035;-73
2022/11/19 08:47:54;;;;;;;35.67;23.17;;;;;;;16.05;96.73;99402.34;5086117;28;20043;-71
2022/11/19 08:50:20;;;;;;;36.60;21.02;;;;;;;16.13;97.17;99394.13;5084672;28;20060;-71
2022/11/19 08:52:52;;;;;;;34.05;22.35;;;;;;;16.06;97.37;99392.47;5085727;28;20051;-71
2022/11/19 08:55:17;;;;;;;36.35;22.90;;;;;;;16.13;96.54;99404.78;5085658;28;20044;-71
2022/11/19 08:57:43;;;;;;;33.83;21.77;;;;;;;16.15;97.13;99409.94;5086582;28;20033;-71
2022/11/19 09:00:09;;;;;;;36.25;23.63;;;;;;;16.13;98.98;99406.66;5087179;28;20042;-73
2022/11/19 09:02:35;;;;;;;40.50;22.98;;;;;;;16.43;97.15;99405.19;5084842;28;20056;-73
2022/11/19 09:05:00;;;;;;;35.08;21.75;;;;;;;16.68;94.78;99389.34;5084647;28;20122;-71
2022/11/19 09:07:26;;;;;;;39.47;23.13;;;;;;;16.65;94.98;99394.28;5064683;28;20047;-73
2022/11/19 09:09:52;;;;;;;45.53;26.40;;;;;;;16.65;95.98;99391.59;5084175;28;20020;-73
2022/11/19 09:12:17;;;;;;;38.05;23.08;;;;;;;16.80;95.21;99385.00;5085436;28;20035;-72
2022/11/19 09:14:43;;;;;;;35.58;22.25;;;;;;;16.82;93.97;99384.78;5083938;28;20103;-72
2022/11/19 09:17:08;;;;;;;33.55;20.45;;;;;;;16.83;93.70;99397.94;5082662;28;20029;-71
2022/11/19 09:19:34;;;;;;;31.77;20.88;;;;;;;16.88;93.29;99383.94;5083611;28;20039;-73
2022/11/19 09:21:59;;;;;;;32.22;20.00;;;;;;;16.94;93.07;99383.09;5085926;28;20035;-73
2022/11/19 09:24:24;;;;;;;33.85;20.42;;;;;;;17.03;93.03;99386.34;5087801;28;20032;-72
2022/11/19 09:26:50;;;;;;;29.77;19.80;;;;;;;17.17;94.73;99375.38;5085182;28;20330;-70
2022/11/19 09:29:15;;;;;;;32.30;20.02;;;;;;;17.21;93.20;99373.91;5083711;28;20033;-70
2022/11/19 09:31:41;;;;;;;32.03;20.40;;;;;;;17.20;93.99;99382.16;5085011;28;20070;-70
2022/11/19 09:34:06;;;;;;;32.38;20.42;;;;;;;17.18;94.53;99379.69;5084414;28;20028;-71
2022/11/19 09:36:32;;;;;;;34.33;22.10;;;;;;;17.11;95.13;99367.38;5085419;28;20317;-71
2022/11/19 09:38:57;;;;;;;38.63;21.73;;;;;;;17.32;92.58;99355.53;5080756;28;20027;-71
2022/11/19 09:41:39;;;;;;;32.85;20.35;;;;;;;17.13;94.99;99360.78;5082305;28;20039;-72
2022/11/19 09:44:21;;;;;;;28.08;18.00;;;;;;;17.27;93.78;99368.75;5084388;28;20052;-73
2022/11/19 09:47:14;;;;;;;28.35;17.20;;;;;;;17.46;91.76;99367.81;5081651;28;20322;-71
2022/11/19 09:49:48;;;;;;;37.28;24.63;;;;;;;17.36;94.58;99362.09;5081683;28;20032;-73
2022/11/19 09:52:17;;;;;;;41.17;25.88;;;;;;;17.36;95.03;99362.09;5086964;28;20103;-72
2022/11/19 09:54:49;;;;;;;40.20;26.08;;;;;;;17.40;94.77;99360.63;5085849;28;20031;-71
2022/11/19 09:57:28;;;;;;;43.50;27.98;;;;;;;17.51;94.25;99371.47;5066725;28;20078;-72
2022/11/19 09:59:56;;;;;;;47.65;27.98;;;;;;;17.41;93.73;99356.94;5084520;28;20024;-73
2022/11/19 10:02:22;;;;;;;42.08;26.02;;;;;;;17.49;92.64;99352.13;5087598;28;20143;-71
2022/11/19 10:04:49;;;;;;;48.90;27.15;;;;;;;17.51;92.79;99346.56;5083298;28;20052;-71
2022/11/19 10:07:34;;;;;;;49.05;28.55;;;;;;;17.66;91.15;99343.56;5065550;28;20108;-73
2022/11/19 10:10:20;;;;;;;47.10;27.17;;;;;;;17.29;92.45;99338.06;5087754;28;20020;-73
2022/11/19 10:13:10;;;;;;;46.03;27.42;;;;;;;17.11;93.44;99329.94;5087369;28;20032;-73
2022/11/19 10:16:03;;;;;;;48.30;27.60;;;;;;;17.10;94.64;99328.28;5102949;28;20031;-71
2022/11/19 10:18:46;;;;;;;47.08;28.02;;;;;;;17.04;94.63;99329.97;5103029;28;20040;-71
2022/11/19 10:21:26;;;;;;;52.70;29.85;;;;;;;17.12;94.81;99337.75;5102993;28;20051;-71
2022/11/19 10:23:59;;;;;;;47.05;27.58;;;;;;;17.22;93.23;99324.72;5084458;28;20066;-73
2022/11/19 10:26:36;;;;;;;48.20;26.73;;;;;;;17.43;91.97;99333.44;5103113;28;20032;-72
2022/11/19 10:29:11;;;;;;;47.67;26.85;;;;;;;17.44;92.52;99330.53;5102875;28;20028;-73
2022/11/19 10:31:42;;;;;;;47.35;26.73;;;;;;;17.14;91.49;99337.53;5102433;28;20085;-71
2022/11/19 10:34:17;;;;;;;48.40;26.50;;;;;;;17.17;92.76;99329.91;5084639;28;20047;-73
2022/11/19 10:36:48;;;;;;;49.88;28.77;;;;;;;17.18;92.25;99326.19;5102872;28;20166;-71
2022/11/19 10:39:26;;;;;;;57.17;29.48;;;;;;;17.25;93.00;99334.16;5102218;28;20057;-73
2022/11/19 10:42:01;;;;;;;48.67;27.75;;;;;;;17.41;93.01;99320.28;5103169;28;20032;-71
2022/11/19 10:44:39;;;;;;;44.05;25.67;;;;;;;17.48;90.87;99322.91;5083761;28;20024;-73
2022/11/19 10:47:33;;;;;;;50.83;26.58;;;;;;;17.56;90.14;99328.81;5102756;28;20016;-73
2022/11/19 10:49:58;;;;;;;53.22;26.05;;;;;;;17.40;91.28;99323.16;5102338;28;20031;-71
2022/11/19 10:52:28;;;;;;;50.17;29.27;;;;;;;17.61;91.13;99322.81;5102737;28;20029;-71
2022/11/19 10:55:11;;;;;;;46.47;26.63;;;;;;;17.59;90.94;99321.38;5084077;28;20022;-73
2022/11/19 10:57:36;;;;;;;50.28;28.25;;;;;;;17.67;91.03;99315.78;5084527;28;20055;-71
2022/11/19 11:00:03;;;;;;;49.17;26.70;;;;;;;17.65;90.68;99309.81;5102400;28;20024;-71
2022/11/19 11:02:56;;;;;;;44.10;25.58;;;;;;;17.60;90.40;99323.03;5102097;28;20036;-71
2022/11/19 11:05:22;;;;;;;51.55;28.10;;;;;;;17.70;89.59;99318.06;5096917;28;20278;-73
2022/11/19 11:07:53;;;;;;;40.60;24.00;;;;;;;17.62;90.61;99311.06;5089612;28;20092;-71
2022/11/19 11:10:41;;;;;;;40.72;23.13;;;;;;;17.66;90.48;99311.44;5100453;28;20024;-71
2022/11/19 11:16:06;;;;;;;38.92;22.27;;;;;;;17.72;88.92;99307.94;5102185;28;20336;-71
2022/11/19 11:18:32;;;;;;;45.45;22.02;;;;;;;17.35;90.24;99304.25;5102315;28;20260;-73
2022/11/19 11:20:58;;;;;;;39.00;22.75;;;;;;;17.18;92.26;99293.25;5102211;28;20020;-71
2022/11/19 11:23:26;;;;;;;38.40;23.38;;;;;;;17.17;92.87;99311.16;5102093;28;20036;-71
2022/11/19 11:25:54;;;;;;;40.13;22.27;;;;;;;17.22;92.35;99308.66;5083825;28;20016;-73
2022/11/19 11:28:21;;;;;;;45.20;23.15;;;;;;;17.36;91.95;99295.19;5084343;28;20074;-73
2022/11/19 11:31:00;;;;;;;37.95;22.60;;;;;;;17.71;90.47;99309.00;5102019;28;20113;-71
2022/11/19 11:33:36;;;;;;;33.25;21.42;;;;;;;17.72;90.39;99303.41;5102314;28;20055;-71
2022/11/19 11:36:11;;;;;;;39.58;22.25;;;;;;;17.59;91.41;99302.66;5102234;28;20099;-73